sensor_id;sensor_type;location;lat;lon;timestamp;pressure;altitude;pressure_sealevel;temperature
28803;BMP280;15949;55.656;37.422;2023-07-31T00:02:12;98716.84;;;12.37
28803;BMP280;15949;55.656;37.422;2023-07-31T00:07:18;98716.78;;;12.34
28803;BMP280;15949;55.656;37.422;2023-07-31T00:12:23;98714.53;;;12.32
28803;BMP280;15949;55.656;37.422;2023-07-31T00:17:29;98712.66;;;12.29
28803;BMP280;15949;55.656;37.422;2023-07-31T00:22:35;98715.59;;;12.28
28803;BMP280;15949;55.656;37.422;2023-07-31T00:27:41;98726.81;;;12.28
28803;BMP280;15949;55.656;37.422;2023-07-31T00:32:49;98720.06;;;12.24
28803;BMP280;15949;55.656;37.422;2023-07-31T00:37:57;98724.50;;;12.20
28803;BMP280;15949;55.656;37.422;2023-07-31T00:43:03;98711.84;;;12.22
28803;BMP280;15949;55.656;37.422;2023-07-31T00:48:09;98704.34;;;12.20
28803;BMP280;15949;55.656;37.422;2023-07-31T00:53:14;98710.69;;;12.23
28803;BMP280;15949;55.656;37.422;2023-07-31T00:58:20;98698.88;;;12.32
28803;BMP280;15949;55.656;37.422;2023-07-31T01:03:26;98703.78;;;12.37
28803;BMP280;15949;55.656;37.422;2023-07-31T01:13:55;98697.44;;;12.38
28803;BMP280;15949;55.656;37.422;2023-07-31T01:19:01;98709.00;;;12.37
28803;BMP280;15949;55.656;37.422;2023-07-31T01:34:34;98710.13;;;11.99
28803;BMP280;15949;55.656;37.422;2023-07-31T01:39:41;98710.78;;;11.93
28803;BMP280;15949;55.656;37.422;2023-07-31T01:44:46;98704.75;;;11.85
28803;BMP280;15949;55.656;37.422;2023-07-31T01:49:52;98715.88;;;11.82
28803;BMP280;15949;55.656;37.422;2023-07-31T01:54:57;98711.41;;;11.83
28803;BMP280;15949;55.656;37.422;2023-07-31T02:00:03;98703.91;;;11.78
28803;BMP280;15949;55.656;37.422;2023-07-31T02:05:09;98701.28;;;11.78
28803;BMP280;15949;55.656;37.422;2023-07-31T02:10:15;98705.41;;;11.79
28803;BMP280;15949;55.656;37.422;2023-07-31T02:15:20;98707.31;;;11.82
28803;BMP280;15949;55.656;37.422;2023-07-31T02:20:26;98708.78;;;11.79
28803;BMP280;15949;55.656;37.422;2023-07-31T02:25:32;98710.28;;;11.80
28803;BMP280;15949;55.656;37.422;2023-07-31T02:30:38;98709.56;;;11.83
28803;BMP280;15949;55.656;37.422;2023-07-31T02:35:43;98718.16;;;11.87
28803;BMP280;15949;55.656;37.422;2023-07-31T02:40:49;98717.59;;;12.04
28803;BMP280;15949;55.656;37.422;2023-07-31T02:45:55;98711.78;;;12.18
28803;BMP280;15949;55.656;37.422;2023-07-31T02:51:00;98707.41;;;12.29
28803;BMP280;15949;55.656;37.422;2023-07-31T02:56:06;98713.16;;;12.45
28803;BMP280;15949;55.656;37.422;2023-07-31T03:01:11;98708.03;;;12.56
28803;BMP280;15949;55.656;37.422;2023-07-31T03:06:17;98712.22;;;12.67
28803;BMP280;15949;55.656;37.422;2023-07-31T03:11:22;98710.00;;;12.66
28803;BMP280;15949;55.656;37.422;2023-07-31T03:16:28;98701.03;;;12.67
28803;BMP280;15949;55.656;37.422;2023-07-31T03:21:33;98705.59;;;12.77
28803;BMP280;15949;55.656;37.422;2023-07-31T03:26:39;98703.06;;;12.88
28803;BMP280;15949;55.656;37.422;2023-07-31T03:31:46;98695.66;;;13.04
28803;BMP280;15949;55.656;37.422;2023-07-31T03:36:52;98695.41;;;13.26
28803;BMP280;15949;55.656;37.422;2023-07-31T03:41:57;98699.19;;;13.39
28803;BMP280;15949;55.656;37.422;2023-07-31T03:47:03;98703.38;;;13.55
28803;BMP280;15949;55.656;37.422;2023-07-31T03:52:09;98708.31;;;13.70
28803;BMP280;15949;55.656;37.422;2023-07-31T03:57:14;98711.34;;;13.90
28803;BMP280;15949;55.656;37.422;2023-07-31T04:02:20;98707.66;;;14.08
28803;BMP280;15949;55.656;37.422;2023-07-31T04:07:26;98717.41;;;14.29
28803;BMP280;15949;55.656;37.422;2023-07-31T04:12:31;98721.91;;;14.43
28803;BMP280;15949;55.656;37.422;2023-07-31T04:17:37;98724.91;;;14.62
28803;BMP280;15949;55.656;37.422;2023-07-31T04:22:43;98722.63;;;14.78
28803;BMP280;15949;55.656;37.422;2023-07-31T04:27:48;98726.34;;;14.99
28803;BMP280;15949;55.656;37.422;2023-07-31T04:32:54;98719.50;;;15.29
28803;BMP280;15949;55.656;37.422;2023-07-31T04:37:59;98723.94;;;15.50
28803;BMP280;15949;55.656;37.422;2023-07-31T04:43:05;98726.47;;;15.71
28803;BMP280;15949;55.656;37.422;2023-07-31T04:48:10;98730.47;;;15.93
28803;BMP280;15949;55.656;37.422;2023-07-31T04:53:16;98731.09;;;16.11
28803;BMP280;15949;55.656;37.422;2023-07-31T04:58:22;98733.13;;;16.38
28803;BMP280;15949;55.656;37.422;2023-07-31T05:03:27;98726.25;;;16.54
28803;BMP280;15949;55.656;37.422;2023-07-31T05:08:33;98727.13;;;16.78
28803;BMP280;15949;55.656;37.422;2023-07-31T05:13:38;98728.41;;;17.00
28803;BMP280;15949;55.656;37.422;2023-07-31T05:18:44;98731.91;;;17.24
28803;BMP280;15949;55.656;37.422;2023-07-31T05:23:50;98725.25;;;17.46
28803;BMP280;15949;55.656;37.422;2023-07-31T05:28:55;98733.25;;;17.65
28803;BMP280;15949;55.656;37.422;2023-07-31T05:34:01;98723.94;;;17.84
28803;BMP280;15949;55.656;37.422;2023-07-31T05:39:06;98729.25;;;18.07
28803;BMP280;15949;55.656;37.422;2023-07-31T05:44:13;98734.94;;;18.29
28803;BMP280;15949;55.656;37.422;2023-07-31T05:49:19;98734.69;;;18.43
28803;BMP280;15949;55.656;37.422;2023-07-31T05:54:24;98736.47;;;18.69
28803;BMP280;15949;55.656;37.422;2023-07-31T05:59:30;98734.53;;;18.93
28803;BMP280;15949;55.656;37.422;2023-07-31T06:04:38;98728.50;;;19.12
28803;BMP280;15949;55.656;37.422;2023-07-31T06:09:44;98729.94;;;19.32
28803;BMP280;15949;55.656;37.422;2023-07-31T06:14:49;98737.06;;;19.52
28803;BMP280;15949;55.656;37.422;2023-07-31T06:19:56;98733.06;;;19.79
28803;BMP280;15949;55.656;37.422;2023-07-31T06:25:02;98738.91;;;20.03
28803;BMP280;15949;55.656;37.422;2023-07-31T06:30:08;98740.41;;;20.20
28803;BMP280;15949;55.656;37.422;2023-07-31T06:35:14;98739.88;;;20.41
28803;BMP280;15949;55.656;37.422;2023-07-31T06:40:19;98744.69;;;20.59
28803;BMP280;15949;55.656;37.422;2023-07-31T06:45:25;98743.25;;;20.83
28803;BMP280;15949;55.656;37.422;2023-07-31T06:50:31;98747.66;;;21.02
28803;BMP280;15949;55.656;37.422;2023-07-31T06:55:37;98752.94;;;21.15
28803;BMP280;15949;55.656;37.422;2023-07-31T07:00:42;98738.78;;;21.34
28803;BMP280;15949;55.656;37.422;2023-07-31T07:05:48;98739.63;;;21.56
28803;BMP280;15949;55.656;37.422;2023-07-31T07:10:53;98740.69;;;21.58
28803;BMP280;15949;55.656;37.422;2023-07-31T07:15:59;98748.09;;;21.76
28803;BMP280;15949;55.656;37.422;2023-07-31T07:21:05;98752.28;;;21.86
28803;BMP280;15949;55.656;37.422;2023-07-31T07:26:10;98740.81;;;21.89
28803;BMP280;15949;55.656;37.422;2023-07-31T07:31:16;98755.94;;;22.14
28803;BMP280;15949;55.656;37.422;2023-07-31T07:36:21;98742.50;;;22.30
28803;BMP280;15949;55.656;37.422;2023-07-31T07:41:27;98749.19;;;22.34
28803;BMP280;15949;55.656;37.422;2023-07-31T07:46:33;98744.06;;;22.61
28803;BMP280;15949;55.656;37.422;2023-07-31T07:51:38;98751.53;;;22.84
28803;BMP280;15949;55.656;37.422;2023-07-31T07:56:44;98744.50;;;22.91
28803;BMP280;15949;55.656;37.422;2023-07-31T08:01:49;98756.81;;;23.06
28803;BMP280;15949;55.656;37.422;2023-07-31T08:06:55;98748.84;;;23.06
28803;BMP280;15949;55.656;37.422;2023-07-31T08:12:00;98758.56;;;23.31
28803;BMP280;15949;55.656;37.422;2023-07-31T08:17:08;98757.25;;;23.35
28803;BMP280;15949;55.656;37.422;2023-07-31T08:22:14;98755.94;;;23.49
28803;BMP280;15949;55.656;37.422;2023-07-31T08:27:19;98750.81;;;23.72
28803;BMP280;15949;55.656;37.422;2023-07-31T08:32:25;98754.84;;;23.86
28803;BMP280;15949;55.656;37.422;2023-07-31T08:37:31;98754.53;;;24.11
28803;BMP280;15949;55.656;37.422;2023-07-31T08:42:47;98763.69;;;24.46
28803;BMP280;15949;55.656;37.422;2023-07-31T08:47:52;98757.38;;;24.86
28803;BMP280;15949;55.656;37.422;2023-07-31T08:52:58;98762.81;;;25.24
28803;BMP280;15949;55.656;37.422;2023-07-31T08:58:04;98754.25;;;25.20
28803;BMP280;15949;55.656;37.422;2023-07-31T09:03:23;98761.91;;;24.52
28803;BMP280;15949;55.656;37.422;2023-07-31T09:08:30;98763.38;;;24.95
28803;BMP280;15949;55.656;37.422;2023-07-31T09:13:39;98757.41;;;24.76
28803;BMP280;15949;55.656;37.422;2023-07-31T09:18:55;98762.81;;;24.04
28803;BMP280;15949;55.656;37.422;2023-07-31T09:24:02;98764.78;;;24.72
28803;BMP280;15949;55.656;37.422;2023-07-31T09:29:18;98763.78;;;25.12
28803;BMP280;15949;55.656;37.422;2023-07-31T09:34:37;98764.25;;;25.57
28803;BMP280;15949;55.656;37.422;2023-07-31T09:39:47;98758.97;;;25.72
28803;BMP280;15949;55.656;37.422;2023-07-31T09:44:53;98766.00;;;25.84
28803;BMP280;15949;55.656;37.422;2023-07-31T09:49:58;98761.94;;;25.88
28803;BMP280;15949;55.656;37.422;2023-07-31T09:55:04;98763.94;;;25.79
28803;BMP280;15949;55.656;37.422;2023-07-31T10:00:11;98756.00;;;26.08
28803;BMP280;15949;55.656;37.422;2023-07-31T10:05:17;98760.78;;;26.48
28803;BMP280;15949;55.656;37.422;2023-07-31T10:10:25;98758.53;;;25.88
28803;BMP280;15949;55.656;37.422;2023-07-31T10:15:30;98760.28;;;24.97
28803;BMP280;15949;55.656;37.422;2023-07-31T10:20:37;98764.78;;;24.72
28803;BMP280;15949;55.656;37.422;2023-07-31T10:25:42;98771.69;;;24.37
28803;BMP280;15949;55.656;37.422;2023-07-31T10:30:49;98769.63;;;24.05
28803;BMP280;15949;55.656;37.422;2023-07-31T10:36:17;98769.59;;;23.78
28803;BMP280;15949;55.656;37.422;2023-07-31T10:41:29;98769.78;;;23.35
28803;BMP280;15949;55.656;37.422;2023-07-31T10:46:36;98773.78;;;23.00
28803;BMP280;15949;55.656;37.422;2023-07-31T10:51:42;98772.63;;;23.01
28803;BMP280;15949;55.656;37.422;2023-07-31T10:56:50;98773.88;;;24.57
28803;BMP280;15949;55.656;37.422;2023-07-31T11:01:56;98770.03;;;25.79
28803;BMP280;15949;55.656;37.422;2023-07-31T11:07:08;98764.03;;;26.37
28803;BMP280;15949;55.656;37.422;2023-07-31T11:12:17;98757.81;;;26.02
28803;BMP280;15949;55.656;37.422;2023-07-31T11:17:25;98754.28;;;25.58
28803;BMP280;15949;55.656;37.422;2023-07-31T11:22:31;98752.75;;;25.19
28803;BMP280;15949;55.656;37.422;2023-07-31T11:27:39;98747.88;;;26.17
28803;BMP280;15949;55.656;37.422;2023-07-31T11:32:46;98754.78;;;26.67
28803;BMP280;15949;55.656;37.422;2023-07-31T11:37:51;98745.59;;;26.88
28803;BMP280;15949;55.656;37.422;2023-07-31T11:42:58;98750.09;;;27.32
28803;BMP280;15949;55.656;37.422;2023-07-31T11:48:04;98758.38;;;27.34
28803;BMP280;15949;55.656;37.422;2023-07-31T11:53:09;98760.06;;;27.77
28803;BMP280;15949;55.656;37.422;2023-07-31T11:58:16;98761.81;;;26.99
28803;BMP280;15949;55.656;37.422;2023-07-31T12:03:22;98757.75;;;26.26
28803;BMP280;15949;55.656;37.422;2023-07-31T12:08:29;98756.47;;;26.99
28803;BMP280;15949;55.656;37.422;2023-07-31T12:13:35;98761.31;;;26.81
28803;BMP280;15949;55.656;37.422;2023-07-31T12:18:40;98760.13;;;26.09
28803;BMP280;15949;55.656;37.422;2023-07-31T12:23:46;98767.28;;;26.90
28803;BMP280;15949;55.656;37.422;2023-07-31T12:28:54;98760.44;;;27.90
28803;BMP280;15949;55.656;37.422;2023-07-31T12:33:59;98769.63;;;27.38
28803;BMP280;15949;55.656;37.422;2023-07-31T12:39:06;98765.22;;;26.36
28803;BMP280;15949;55.656;37.422;2023-07-31T12:44:12;98770.63;;;25.98
28803;BMP280;15949;55.656;37.422;2023-07-31T12:49:17;98771.75;;;25.44
28803;BMP280;15949;55.656;37.422;2023-07-31T12:54:23;98779.09;;;25.02
28803;BMP280;15949;55.656;37.422;2023-07-31T12:59:28;98772.75;;;24.91
28803;BMP280;15949;55.656;37.422;2023-07-31T13:04:34;98778.06;;;24.81
28803;BMP280;15949;55.656;37.422;2023-07-31T13:09:40;98775.50;;;24.54
28803;BMP280;15949;55.656;37.422;2023-07-31T13:14:46;98781.47;;;24.22
28803;BMP280;15949;55.656;37.422;2023-07-31T13:19:52;98792.72;;;23.90
28803;BMP280;15949;55.656;37.422;2023-07-31T13:24:57;98786.53;;;23.44
28803;BMP280;15949;55.656;37.422;2023-07-31T13:30:03;98801.47;;;23.11
28803;BMP280;15949;55.656;37.422;2023-07-31T13:35:09;98800.50;;;22.96
28803;BMP280;15949;55.656;37.422;2023-07-31T13:40:16;98793.03;;;22.82
28803;BMP280;15949;55.656;37.422;2023-07-31T13:45:22;98790.88;;;22.68
28803;BMP280;15949;55.656;37.422;2023-07-31T13:50:28;98798.78;;;22.59
28803;BMP280;15949;55.656;37.422;2023-07-31T13:55:33;98795.38;;;22.58
28803;BMP280;15949;55.656;37.422;2023-07-31T14:00:39;98799.50;;;22.59
28803;BMP280;15949;55.656;37.422;2023-07-31T14:05:45;98793.75;;;22.52
28803;BMP280;15949;55.656;37.422;2023-07-31T14:10:50;98785.63;;;22.55
28803;BMP280;15949;55.656;37.422;2023-07-31T14:15:56;98785.94;;;22.57
28803;BMP280;15949;55.656;37.422;2023-07-31T14:21:01;98780.91;;;22.81
28803;BMP280;15949;55.656;37.422;2023-07-31T14:26:07;98782.13;;;23.11
28803;BMP280;15949;55.656;37.422;2023-07-31T14:31:13;98777.88;;;23.22
28803;BMP280;15949;55.656;37.422;2023-07-31T14:36:18;98779.81;;;23.22
28803;BMP280;15949;55.656;37.422;2023-07-31T14:41:24;98775.22;;;23.22
28803;BMP280;15949;55.656;37.422;2023-07-31T14:46:29;98773.88;;;23.18
28803;BMP280;15949;55.656;37.422;2023-07-31T14:51:35;98772.94;;;23.12
28803;BMP280;15949;55.656;37.422;2023-07-31T14:56:41;98760.53;;;23.09
28803;BMP280;15949;55.656;37.422;2023-07-31T15:01:46;98770.22;;;23.03
28803;BMP280;15949;55.656;37.422;2023-07-31T15:06:52;98776.66;;;22.83
28803;BMP280;15949;55.656;37.422;2023-07-31T15:11:58;98767.63;;;22.59
28803;BMP280;15949;55.656;37.422;2023-07-31T15:17:04;98778.22;;;22.29
28803;BMP280;15949;55.656;37.422;2023-07-31T15:22:09;98770.72;;;22.02
28803;BMP280;15949;55.656;37.422;2023-07-31T15:27:15;98772.78;;;21.85
28803;BMP280;15949;55.656;37.422;2023-07-31T15:32:21;98781.81;;;21.75
28803;BMP280;15949;55.656;37.422;2023-07-31T15:37:27;98782.88;;;21.65
28803;BMP280;15949;55.656;37.422;2023-07-31T15:42:32;98786.19;;;21.44
28803;BMP280;15949;55.656;37.422;2023-07-31T15:47:43;98779.28;;;21.34
28803;BMP280;15949;55.656;37.422;2023-07-31T15:52:49;98777.38;;;21.22
28803;BMP280;15949;55.656;37.422;2023-07-31T15:57:54;98789.75;;;21.13
28803;BMP280;15949;55.656;37.422;2023-07-31T16:03:00;98790.81;;;21.02
28803;BMP280;15949;55.656;37.422;2023-07-31T16:08:07;98778.91;;;20.94
28803;BMP280;15949;55.656;37.422;2023-07-31T16:13:13;98793.84;;;20.88
28803;BMP280;15949;55.656;37.422;2023-07-31T16:18:18;98788.09;;;20.77
28803;BMP280;15949;55.656;37.422;2023-07-31T16:23:24;98780.75;;;20.69
28803;BMP280;15949;55.656;37.422;2023-07-31T16:28:29;98780.59;;;20.60
28803;BMP280;15949;55.656;37.422;2023-07-31T16:33:35;98779.63;;;20.54
28803;BMP280;15949;55.656;37.422;2023-07-31T16:38:41;98778.97;;;20.50
28803;BMP280;15949;55.656;37.422;2023-07-31T16:43:46;98781.88;;;20.39
28803;BMP280;15949;55.656;37.422;2023-07-31T16:48:52;98795.59;;;20.34
28803;BMP280;15949;55.656;37.422;2023-07-31T16:53:58;98785.19;;;20.27
28803;BMP280;15949;55.656;37.422;2023-07-31T16:59:03;98799.19;;;20.28
28803;BMP280;15949;55.656;37.422;2023-07-31T17:04:09;98802.50;;;20.15
28803;BMP280;15949;55.656;37.422;2023-07-31T17:09:15;98805.06;;;20.03
28803;BMP280;15949;55.656;37.422;2023-07-31T17:14:20;98815.97;;;19.89
28803;BMP280;15949;55.656;37.422;2023-07-31T17:19:26;98817.50;;;19.70
28803;BMP280;15949;55.656;37.422;2023-07-31T17:24:31;98835.56;;;19.56
28803;BMP280;15949;55.656;37.422;2023-07-31T17:29:37;98829.06;;;19.41
28803;BMP280;15949;55.656;37.422;2023-07-31T17:34:43;98832.53;;;19.18
28803;BMP280;15949;55.656;37.422;2023-07-31T17:39:48;98841.81;;;19.06
28803;BMP280;15949;55.656;37.422;2023-07-31T17:44:54;98843.63;;;18.90
28803;BMP280;15949;55.656;37.422;2023-07-31T17:49:59;98854.38;;;18.79
28803;BMP280;15949;55.656;37.422;2023-07-31T17:55:06;98870.50;;;18.62
28803;BMP280;15949;55.656;37.422;2023-07-31T18:00:12;98871.59;;;18.41
28803;BMP280;15949;55.656;37.422;2023-07-31T18:05:18;98879.28;;;18.28
28803;BMP280;15949;55.656;37.422;2023-07-31T18:10:24;98884.81;;;18.11
28803;BMP280;15949;55.656;37.422;2023-07-31T18:15:30;98876.31;;;18.00
28803;BMP280;15949;55.656;37.422;2023-07-31T18:20:35;98876.47;;;17.86
28803;BMP280;15949;55.656;37.422;2023-07-31T18:25:41;98871.53;;;17.91
28803;BMP280;15949;55.656;37.422;2023-07-31T18:30:47;98879.00;;;17.62
28803;BMP280;15949;55.656;37.422;2023-07-31T18:35:52;98883.91;;;17.60
28803;BMP280;15949;55.656;37.422;2023-07-31T18:40:58;98873.09;;;17.51
28803;BMP280;15949;55.656;37.422;2023-07-31T18:46:04;98884.53;;;17.41
28803;BMP280;15949;55.656;37.422;2023-07-31T18:51:10;98881.34;;;17.20
28803;BMP280;15949;55.656;37.422;2023-07-31T18:56:15;98876.44;;;17.18
28803;BMP280;15949;55.656;37.422;2023-07-31T19:01:21;98879.97;;;17.05
28803;BMP280;15949;55.656;37.422;2023-07-31T19:06:27;98880.50;;;16.82
28803;BMP280;15949;55.656;37.422;2023-07-31T19:11:32;98880.66;;;16.64
28803;BMP280;15949;55.656;37.422;2023-07-31T19:16:38;98878.44;;;16.56
28803;BMP280;15949;55.656;37.422;2023-07-31T19:21:43;98876.69;;;16.42
28803;BMP280;15949;55.656;37.422;2023-07-31T19:26:50;98876.72;;;16.32
28803;BMP280;15949;55.656;37.422;2023-07-31T19:31:55;98885.78;;;16.23
28803;BMP280;15949;55.656;37.422;2023-07-31T19:37:01;98895.59;;;16.19
28803;BMP280;15949;55.656;37.422;2023-07-31T19:42:06;98892.59;;;16.14
28803;BMP280;15949;55.656;37.422;2023-07-31T19:47:12;98897.53;;;16.01
28803;BMP280;15949;55.656;37.422;2023-07-31T19:52:17;98902.44;;;15.89
28803;BMP280;15949;55.656;37.422;2023-07-31T19:57:23;98899.88;;;15.78
28803;BMP280;15949;55.656;37.422;2023-07-31T20:02:29;98906.25;;;15.70
28803;BMP280;15949;55.656;37.422;2023-07-31T20:07:34;98902.88;;;15.66
28803;BMP280;15949;55.656;37.422;2023-07-31T20:12:40;98907.78;;;15.64
28803;BMP280;15949;55.656;37.422;2023-07-31T20:17:46;98904.78;;;15.62
28803;BMP280;15949;55.656;37.422;2023-07-31T20:22:51;98899.09;;;15.74
28803;BMP280;15949;55.656;37.422;2023-07-31T20:27:57;98907.41;;;15.69
28803;BMP280;15949;55.656;37.422;2023-07-31T20:33:03;98907.38;;;15.66
28803;BMP280;15949;55.656;37.422;2023-07-31T20:38:09;98919.41;;;15.67
28803;BMP280;15949;55.656;37.422;2023-07-31T20:43:14;98913.38;;;15.80
28803;BMP280;15949;55.656;37.422;2023-07-31T20:48:23;98910.38;;;15.78
28803;BMP280;15949;55.656;37.422;2023-07-31T20:53:29;98914.94;;;15.60
28803;BMP280;15949;55.656;37.422;2023-07-31T20:58:35;98916.44;;;15.50
28803;BMP280;15949;55.656;37.422;2023-07-31T21:03:41;98919.44;;;15.42
28803;BMP280;15949;55.656;37.422;2023-07-31T21:08:47;98913.47;;;15.31
28803;BMP280;15949;55.656;37.422;2023-07-31T21:13:52;98897.31;;;15.25
28803;BMP280;15949;55.656;37.422;2023-07-31T21:18:58;98910.09;;;15.27
28803;BMP280;15949;55.656;37.422;2023-07-31T21:24:03;98907.44;;;15.23
28803;BMP280;15949;55.656;37.422;2023-07-31T21:29:09;98906.31;;;15.21
28803;BMP280;15949;55.656;37.422;2023-07-31T21:34:15;98900.34;;;15.17
28803;BMP280;15949;55.656;37.422;2023-07-31T21:39:20;98904.06;;;15.16
28803;BMP280;15949;55.656;37.422;2023-07-31T21:44:26;98899.94;;;15.15
28803;BMP280;15949;55.656;37.422;2023-07-31T21:49:32;98905.56;;;15.20
28803;BMP280;15949;55.656;37.422;2023-07-31T21:54:37;98904.81;;;15.23
28803;BMP280;15949;55.656;37.422;2023-07-31T21:59:43;98896.19;;;15.16
28803;BMP280;15949;55.656;37.422;2023-07-31T22:04:48;98896.19;;;15.09
28803;BMP280;15949;55.656;37.422;2023-07-31T22:09:54;98899.56;;;15.06
28803;BMP280;15949;55.656;37.422;2023-07-31T22:14:59;98896.56;;;15.04
28803;BMP280;15949;55.656;37.422;2023-07-31T22:20:06;98888.72;;;15.07
28803;BMP280;15949;55.656;37.422;2023-07-31T22:25:11;98897.31;;;15.11
28803;BMP280;15949;55.656;37.422;2023-07-31T22:30:18;98886.81;;;15.25
28803;BMP280;15949;55.656;37.422;2023-07-31T22:35:23;98886.81;;;15.36
28803;BMP280;15949;55.656;37.422;2023-07-31T22:40:29;98892.06;;;15.29
28803;BMP280;15949;55.656;37.422;2023-07-31T22:45:34;98895.06;;;15.13
28803;BMP280;15949;55.656;37.422;2023-07-31T22:50:40;98897.69;;;15.13
28803;BMP280;15949;55.656;37.422;2023-07-31T22:55:46;98898.47;;;15.14
28803;BMP280;15949;55.656;37.422;2023-07-31T23:01:00;98895.09;;;15.03
28803;BMP280;15949;55.656;37.422;2023-07-31T23:06:06;98895.06;;;14.96
28803;BMP280;15949;55.656;37.422;2023-07-31T23:11:11;98895.81;;;14.89
28803;BMP280;15949;55.656;37.422;2023-07-31T23:16:17;98900.69;;;14.83
28803;BMP280;15949;55.656;37.422;2023-07-31T23:21:22;98904.41;;;14.82
28803;BMP280;15949;55.656;37.422;2023-07-31T23:26:28;98904.06;;;14.77
28803;BMP280;15949;55.656;37.422;2023-07-31T23:31:34;98896.53;;;14.72
28803;BMP280;15949;55.656;37.422;2023-07-31T23:36:41;98901.38;;;14.70
28803;BMP280;15949;55.656;37.422;2023-07-31T23:41:46;98897.28;;;14.69
28803;BMP280;15949;55.656;37.422;2023-07-31T23:46:52;98893.88;;;14.65
28803;BMP280;15949;55.656;37.422;2023-07-31T23:51:57;98907.03;;;14.75
28803;BMP280;15949;55.656;37.422;2023-07-31T23:57:03;98904.78;;;14.70
